Accueil
METAR-TAF:

METAR-TAF

Aéroports :

Aéroport de Poitiers-Biard

Poitiers, France

latitude: 46-35N, longitude: 000-19E, altitude: 129 m

Observation

Le bulletin a été fait il y a 1 heure et 11 minutes, à 13:30 UTC
Vent 9 kt de nord-est
Température 4°C
Humidité 81%
Pression 1036 hPa
Visibilité 10 km ou plus

METAR: LFBI 221330Z AUTO 04009KT 9999 OVC019/// 04/01 Q1036 TEMPO BKN012

Heure: 15:41 (14:41 UTC)

Prévision

Le bulletin a été fait il y a 3 heures et 41 minutes, à 11:00 UTC
Prévision valable du 22 à 12 UTC au 23 à 12 UTC
Vent 10 kt de nord-est
Visibilité 10 km ou plus
Nuages fragmentés à une hauteur de 2000 ft
Temporairement
du 22 à 12 UTC au 22 à 18 UTC
Nuages fragmentés à une hauteur de 1200 ft
Probabilité 40%
du 23 à 00 UTC au 23 à 12 UTC
Nuages fragmentés à une hauteur de 800 ft

TAF: LFBI 221100Z 2212/2312 04010KT 9999 BKN020 TEMPO 2212/2218 BKN012 PROB40 2300/2312 BKN008

Observations et prévisions météorologiques de plus de 4000 aéroports (messages METAR et TAF).

Les stations disponibles sont représentées par des disques jaunes et rouges sur la carte.

Passer la souris dessus pour voir le nom de la station.

Cliquer dessus pour voir les observations et prévisions météorologiques.

Pour changer de carte: cliquez sur les boutons verts avec une croix noire pour zoomer, sur le bouton vert avec un tiret pour effectuer un zoom arrière, ou sur les flèches vertes pour les cartes adjacentes.


METAR-TAF: